createdAt,value
2023-09-06T00:00:34.210Z,55.35
2023-09-06T00:01:37.528Z,55.32
2023-09-06T00:02:39.923Z,55.42
2023-09-06T00:03:42.410Z,55.68
2023-09-06T00:04:45.079Z,55.85
2023-09-06T00:05:47.534Z,55.72
2023-09-06T00:06:49.981Z,56.12
2023-09-06T00:07:52.761Z,56.38
2023-09-06T00:08:55.128Z,56.73
2023-09-06T00:09:57.551Z,56.85
2023-09-06T00:11:02.577Z,56.94
2023-09-06T00:12:05.866Z,56.89
2023-09-06T00:13:08.941Z,56.66
2023-09-06T00:14:12.558Z,57.14
2023-09-06T00:15:15.604Z,57.23
2023-09-06T00:16:18.468Z,56.90
2023-09-06T00:17:20.891Z,57.01
2023-09-06T00:18:24.548Z,56.89
2023-09-06T00:19:27.090Z,56.94
2023-09-06T00:20:30.144Z,57.18
2023-09-06T00:21:33.746Z,57.23
2023-09-06T00:22:36.159Z,57.42
2023-09-06T00:23:38.520Z,57.29
2023-09-06T00:24:40.867Z,57.44
2023-09-06T00:25:43.321Z,57.47
2023-09-06T00:26:46.084Z,57.23
2023-09-06T00:27:48.575Z,57.36
2023-09-06T00:28:51.227Z,57.44
2023-09-06T00:29:53.567Z,57.54
2023-09-06T00:30:59.079Z,57.45
2023-09-06T00:32:02.007Z,57.40
2023-09-06T00:33:07.294Z,57.65
2023-09-06T00:34:09.788Z,57.57
2023-09-06T00:35:12.701Z,57.60
2023-09-06T00:36:15.090Z,57.56
2023-09-06T00:37:17.475Z,57.63
2023-09-06T00:38:22.827Z,57.64
2023-09-06T00:39:29.522Z,57.52
2023-09-06T00:40:33.104Z,57.58
2023-09-06T00:41:41.558Z,57.67
2023-09-06T00:42:47.872Z,57.70
2023-09-06T00:43:50.951Z,57.42
2023-09-06T00:44:53.351Z,57.53
2023-09-06T00:45:55.849Z,57.59
2023-09-06T00:47:00.872Z,57.54
2023-09-06T00:48:06.857Z,57.41
2023-09-06T00:49:09.399Z,57.27
2023-09-06T00:50:12.561Z,57.28
2023-09-06T00:51:14.922Z,57.27
2023-09-06T00:52:18.838Z,57.34
2023-09-06T00:53:23.397Z,57.34
2023-09-06T00:54:25.958Z,57.08
2023-09-06T00:55:28.452Z,57.34
2023-09-06T00:56:32.104Z,57.62
2023-09-06T00:57:34.517Z,57.36
2023-09-06T00:58:38.017Z,57.50
2023-09-06T00:59:41.376Z,57.29
2023-09-06T01:00:49.192Z,57.47
2023-09-06T01:01:52.046Z,57.49
2023-09-06T01:02:54.784Z,57.21
2023-09-06T01:03:58.576Z,57.29
2023-09-06T01:05:01.246Z,57.40
2023-09-06T01:06:13.572Z,57.20
2023-09-06T01:07:16.255Z,57.55
2023-09-06T01:08:29.378Z,57.25
2023-09-06T01:09:32.632Z,57.16
2023-09-06T01:10:36.049Z,57.49
2023-09-06T01:11:40.429Z,57.33
2023-09-06T01:12:42.975Z,57.47
2023-09-06T01:13:47.361Z,57.44
2023-09-06T01:14:49.865Z,57.29
2023-09-06T01:15:53.040Z,57.39
2023-09-06T01:16:57.417Z,57.27
2023-09-06T01:18:03.701Z,57.51
2023-09-06T01:19:08.120Z,57.29
2023-09-06T01:20:30.449Z,57.41
2023-09-06T01:21:40.121Z,57.29
2023-09-06T01:22:49.323Z,57.57
2023-09-06T01:23:53.054Z,57.59
2023-09-06T01:24:56.346Z,57.49
2023-09-06T01:25:58.821Z,57.31
2023-09-06T01:27:02.039Z,57.32
2023-09-06T01:28:04.919Z,57.31
2023-09-06T01:29:07.877Z,57.61
2023-09-06T01:30:10.728Z,57.62
2023-09-06T01:31:13.327Z,57.78
2023-09-06T01:32:16.406Z,57.62
2023-09-06T01:33:19.043Z,58.00
2023-09-06T01:34:21.415Z,57.88
2023-09-06T01:35:23.858Z,58.30
2023-09-06T01:36:26.850Z,57.85
2023-09-06T01:37:29.227Z,57.89
2023-09-06T01:38:34.234Z,58.06
2023-09-06T01:39:37.203Z,58.42
2023-09-06T01:40:39.667Z,58.61
2023-09-06T01:41:42.031Z,58.54
2023-09-06T01:42:45.577Z,58.73
2023-09-06T01:43:48.052Z,58.77
2023-09-06T01:44:50.715Z,58.87
2023-09-06T01:45:53.525Z,58.72
2023-09-06T01:46:57.362Z,58.91
2023-09-06T01:47:59.775Z,58.88
2023-09-06T01:49:02.200Z,58.72
2023-09-06T01:50:05.871Z,59.04
2023-09-06T01:51:09.980Z,58.74
2023-09-06T01:52:12.477Z,58.88
2023-09-06T01:53:15.975Z,59.33
2023-09-06T01:54:18.406Z,58.76
2023-09-06T01:55:21.824Z,59.26
2023-09-06T01:56:24.304Z,59.22
2023-09-06T01:57:26.813Z,59.12
2023-09-06T01:58:34.231Z,59.16
2023-09-06T01:59:37.236Z,59.24
2023-09-06T02:00:40.394Z,59.06
2023-09-06T02:01:42.982Z,59.07
2023-09-06T02:02:45.649Z,59.12
2023-09-06T02:03:48.344Z,59.10
2023-09-06T02:04:52.484Z,59.10
2023-09-06T02:05:54.834Z,59.35
2023-09-06T02:06:57.283Z,59.17
2023-09-06T02:08:00.359Z,59.05
2023-09-06T02:09:02.718Z,59.42
2023-09-06T02:10:05.587Z,59.36
2023-09-06T02:11:08.172Z,59.48
2023-09-06T02:12:10.641Z,59.08
2023-09-06T02:13:13.172Z,59.34
2023-09-06T02:14:15.654Z,59.40
2023-09-06T02:15:18.362Z,59.40
2023-09-06T02:16:21.011Z,59.52
2023-09-06T02:17:26.708Z,59.38
2023-09-06T02:18:29.441Z,59.25
2023-09-06T02:19:31.944Z,59.18
2023-09-06T02:20:34.752Z,59.57
2023-09-06T02:21:39.677Z,59.56
2023-09-06T02:22:44.964Z,59.68
2023-09-06T02:23:47.390Z,59.26
2023-09-06T02:24:49.822Z,59.23
2023-09-06T02:25:52.314Z,59.69
2023-09-06T02:26:55.385Z,59.42
2023-09-06T02:28:08.933Z,59.48
2023-09-06T02:29:12.626Z,59.52
2023-09-06T02:30:15.307Z,59.57
2023-09-06T02:31:17.782Z,59.64
2023-09-06T02:32:20.394Z,59.68
2023-09-06T02:33:22.890Z,59.18
2023-09-06T02:34:25.285Z,59.12
2023-09-06T02:35:28.537Z,59.61
2023-09-06T02:36:30.906Z,59.49
2023-09-06T02:37:33.387Z,59.60
2023-09-06T02:38:35.822Z,59.26
2023-09-06T02:39:38.453Z,59.49
2023-09-06T02:40:44.136Z,59.73
2023-09-06T02:41:48.163Z,59.63
2023-09-06T02:42:52.764Z,59.47
2023-09-06T02:43:55.211Z,59.64
2023-09-06T02:44:57.580Z,59.51
2023-09-06T02:46:04.590Z,59.65
2023-09-06T02:47:10.953Z,59.54
2023-09-06T02:48:18.341Z,59.74
2023-09-06T02:49:20.741Z,59.64
2023-09-06T02:50:25.778Z,59.61
2023-09-06T02:51:30.540Z,59.85
2023-09-06T02:52:37.159Z,59.83
2023-09-06T02:53:45.588Z,59.76
2023-09-06T02:54:48.983Z,59.61
2023-09-06T02:55:55.077Z,59.83
2023-09-06T02:56:58.718Z,59.94
2023-09-06T02:58:01.404Z,59.78
2023-09-06T02:59:04.841Z,59.95
2023-09-06T03:00:21.423Z,59.97
2023-09-06T03:01:23.833Z,60.49
2023-09-06T03:02:26.364Z,60.39
2023-09-06T03:03:29.827Z,60.21
2023-09-06T03:04:39.252Z,60.10
2023-09-06T03:05:44.920Z,60.51
2023-09-06T03:06:51.242Z,60.13
2023-09-06T03:07:55.199Z,60.44
2023-09-06T03:09:00.808Z,60.43
2023-09-06T03:10:03.750Z,60.32
2023-09-06T03:11:08.824Z,60.50
2023-09-06T03:12:15.722Z,60.36
2023-09-06T03:13:21.760Z,60.48
2023-09-06T03:14:31.611Z,60.48
2023-09-06T03:15:35.752Z,60.70
2023-09-06T03:16:43.728Z,60.71
2023-09-06T03:17:48.506Z,60.63
2023-09-06T03:18:52.648Z,60.68
2023-09-06T03:19:55.289Z,60.40
2023-09-06T03:20:57.684Z,60.28
2023-09-06T03:22:06.630Z,60.34
2023-09-06T03:23:19.709Z,60.50
2023-09-06T03:24:26.235Z,60.52
2023-09-06T03:25:30.214Z,60.63
2023-09-06T03:26:32.724Z,60.37
2023-09-06T03:27:37.415Z,60.57
2023-09-06T03:28:43.097Z,60.56
2023-09-06T03:29:54.229Z,60.62
2023-09-06T03:31:00.694Z,60.85
2023-09-06T03:32:10.600Z,61.04
2023-09-06T03:33:14.715Z,60.99
2023-09-06T03:34:17.262Z,60.89
2023-09-06T03:35:23.818Z,60.84
2023-09-06T03:36:26.317Z,60.85
2023-09-06T03:37:32.006Z,60.87
2023-09-06T03:38:36.309Z,61.14
2023-09-06T03:39:42.650Z,61.08
2023-09-06T03:40:45.809Z,61.04
2023-09-06T03:41:49.869Z,61.02
2023-09-06T03:42:58.470Z,60.68
2023-09-06T03:44:00.911Z,60.89
2023-09-06T03:45:04.550Z,61.07
2023-09-06T03:46:08.893Z,60.98
2023-09-06T03:47:17.484Z,61.04
2023-09-06T03:48:22.209Z,61.12
2023-09-06T03:50:31.620Z,60.96
2023-09-06T03:51:34.336Z,61.00
2023-09-06T03:52:37.674Z,61.04
2023-09-06T03:53:40.105Z,61.00
2023-09-06T03:54:44.932Z,61.11
2023-09-06T03:55:47.949Z,61.02
2023-09-06T03:56:51.254Z,61.27
2023-09-06T03:57:54.023Z,61.22
2023-09-06T03:58:57.270Z,61.28
2023-09-06T04:00:00.428Z,61.42
2023-09-06T04:01:05.277Z,61.60
2023-09-06T04:02:15.024Z,61.37
2023-09-06T04:03:24.388Z,61.69
2023-09-06T04:04:30.229Z,61.46
2023-09-06T04:05:33.911Z,61.47
2023-09-06T04:06:38.219Z,61.54
2023-09-06T04:07:40.732Z,61.60
2023-09-06T04:08:44.694Z,61.47
2023-09-06T04:09:47.204Z,61.65
2023-09-06T04:10:50.624Z,61.31
2023-09-06T04:11:53.619Z,61.29
2023-09-06T04:12:56.778Z,61.58
2023-09-06T04:13:59.893Z,61.70
2023-09-06T04:15:04.933Z,61.34
2023-09-06T04:16:09.002Z,61.42
2023-09-06T04:17:13.533Z,61.71
2023-09-06T04:18:16.120Z,61.46
2023-09-06T04:19:18.615Z,61.44
2023-09-06T04:20:21.137Z,61.50
2023-09-06T04:21:23.905Z,61.74
2023-09-06T04:22:26.272Z,61.46
2023-09-06T04:23:28.753Z,61.34
2023-09-06T04:24:35.343Z,61.56
2023-09-06T04:25:46.547Z,61.42
2023-09-06T04:26:52.563Z,61.61
2023-09-06T04:27:58.368Z,61.59
2023-09-06T04:29:04.204Z,61.75
2023-09-06T04:30:08.395Z,61.63
2023-09-06T04:31:11.128Z,61.58
2023-09-06T04:32:18.783Z,61.44
2023-09-06T04:33:21.405Z,61.52
2023-09-06T04:34:31.579Z,61.47
2023-09-06T04:35:46.014Z,61.76
2023-09-06T04:36:49.737Z,61.86
2023-09-06T04:37:55.437Z,61.59
2023-09-06T04:38:59.668Z,61.61
2023-09-06T04:40:04.242Z,61.95
2023-09-06T04:41:06.817Z,61.81
2023-09-06T04:42:14.930Z,61.66
2023-09-06T04:43:18.488Z,61.90
2023-09-06T04:44:26.041Z,61.50
2023-09-06T04:45:29.710Z,61.68
2023-09-06T04:46:32.294Z,61.79
2023-09-06T04:47:39.009Z,61.68
2023-09-06T04:48:41.920Z,61.61
2023-09-06T04:49:48.077Z,61.44
2023-09-06T04:50:51.734Z,61.61
2023-09-06T04:51:54.397Z,61.60
2023-09-06T04:52:58.109Z,61.70
2023-09-06T04:54:01.849Z,61.50
2023-09-06T04:55:11.771Z,61.70
2023-09-06T04:56:14.429Z,61.61
2023-09-06T04:57:23.295Z,61.61
2023-09-06T04:58:25.835Z,61.79
2023-09-06T04:59:28.789Z,61.34
2023-09-06T05:00:34.548Z,61.46
2023-09-06T05:01:36.937Z,61.50
2023-09-06T05:02:39.512Z,61.71
2023-09-06T05:03:42.196Z,61.68
2023-09-06T05:04:45.458Z,61.83
2023-09-06T05:05:48.862Z,61.90
2023-09-06T05:06:52.302Z,61.90
2023-09-06T05:07:55.119Z,61.83
2023-09-06T05:08:58.206Z,61.88
2023-09-06T05:10:02.401Z,62.07
2023-09-06T05:11:04.787Z,62.18
2023-09-06T05:12:09.309Z,62.31
2023-09-06T05:13:13.225Z,61.99
2023-09-06T05:14:18.046Z,62.00
2023-09-06T05:15:21.265Z,62.23
2023-09-06T05:16:23.805Z,62.16
2023-09-06T05:17:26.749Z,62.50
2023-09-06T05:18:30.313Z,62.31
2023-09-06T05:19:34.053Z,62.13
2023-09-06T05:20:39.429Z,61.87
2023-09-06T05:21:46.556Z,61.60
2023-09-06T05:22:48.955Z,61.86
2023-09-06T05:23:51.455Z,61.44
2023-09-06T05:24:53.890Z,61.35
2023-09-06T05:25:57.426Z,61.42
2023-09-06T05:27:07.728Z,61.39
2023-09-06T05:28:13.948Z,60.86
2023-09-06T05:29:19.932Z,60.78
2023-09-06T05:30:22.370Z,60.64
2023-09-06T05:31:25.012Z,60.31
2023-09-06T05:32:29.668Z,60.17
2023-09-06T05:33:32.643Z,60.13
2023-09-06T05:34:36.479Z,59.53
2023-09-06T05:35:42.629Z,59.27
2023-09-06T05:36:45.042Z,59.38
2023-09-06T05:37:47.494Z,58.91
2023-09-06T05:38:49.962Z,58.99
2023-09-06T05:39:54.378Z,58.81
2023-09-06T05:40:58.736Z,58.23
2023-09-06T05:42:09.090Z,57.90
2023-09-06T05:43:11.756Z,57.57
2023-09-06T05:44:15.329Z,56.91
2023-09-06T05:45:19.875Z,56.69
2023-09-06T05:46:33.237Z,56.68
2023-09-06T05:47:42.768Z,56.34
2023-09-06T05:48:45.548Z,55.72
2023-09-06T05:49:49.527Z,55.70
2023-09-06T05:50:52.241Z,55.11
2023-09-06T05:51:55.135Z,55.10
2023-09-06T05:52:57.741Z,54.64
2023-09-06T05:54:01.891Z,54.41
2023-09-06T05:55:07.020Z,53.93
2023-09-06T05:56:10.419Z,53.85
2023-09-06T05:57:12.794Z,53.34
2023-09-06T05:58:16.333Z,53.02
2023-09-06T05:59:20.696Z,53.05
2023-09-06T06:00:24.123Z,52.67
2023-09-06T06:01:29.752Z,52.51
2023-09-06T06:02:33.030Z,52.34
2023-09-06T06:03:37.624Z,51.63
2023-09-06T06:04:41.319Z,51.10
2023-09-06T06:05:44.241Z,51.17
2023-09-06T06:06:46.743Z,51.00
2023-09-06T06:07:49.215Z,50.84
2023-09-06T06:08:51.644Z,50.61
2023-09-06T06:09:54.119Z,50.23
2023-09-06T06:10:57.718Z,50.17
2023-09-06T06:12:00.232Z,49.69
2023-09-06T06:13:05.127Z,49.57
2023-09-06T06:14:10.902Z,49.20
2023-09-06T06:15:14.963Z,49.04
2023-09-06T06:16:17.569Z,49.26
2023-09-06T06:17:20.230Z,49.00
2023-09-06T06:18:26.915Z,48.08
2023-09-06T06:19:29.608Z,48.21
2023-09-06T06:20:44.095Z,47.78
2023-09-06T06:21:47.592Z,47.69
2023-09-06T06:22:50.060Z,48.10
2023-09-06T06:23:52.471Z,47.57
2023-09-06T06:24:54.946Z,47.73
2023-09-06T06:25:57.487Z,47.46
2023-09-06T06:26:59.894Z,47.38
2023-09-06T06:28:02.300Z,46.89
2023-09-06T06:29:05.440Z,46.54
2023-09-06T06:30:09.520Z,46.39
2023-09-06T06:31:12.601Z,46.18
2023-09-06T06:32:15.255Z,46.24
2023-09-06T06:33:17.732Z,46.10
2023-09-06T06:34:20.609Z,45.79
2023-09-06T06:35:23.055Z,45.54
2023-09-06T06:36:25.524Z,45.46
2023-09-06T06:37:28.413Z,44.94
2023-09-06T06:38:31.258Z,44.34
2023-09-06T06:39:33.939Z,44.19
2023-09-06T06:40:38.206Z,44.21
2023-09-06T06:41:41.707Z,44.03
2023-09-06T06:42:46.251Z,43.54
2023-09-06T06:43:48.726Z,43.76
2023-09-06T06:44:51.118Z,43.86
2023-09-06T06:45:55.431Z,43.63
2023-09-06T06:46:57.997Z,43.69
2023-09-06T06:48:00.497Z,43.25
2023-09-06T06:49:05.944Z,43.47
2023-09-06T06:50:08.712Z,43.16
2023-09-06T06:51:11.181Z,42.95
2023-09-06T06:52:13.562Z,42.40
2023-09-06T06:53:16.362Z,42.25
2023-09-06T06:54:19.270Z,41.92
2023-09-06T06:55:21.776Z,41.55
2023-09-06T06:56:24.950Z,41.49
2023-09-06T06:57:27.484Z,41.37
2023-09-06T06:58:30.012Z,41.71
2023-09-06T06:59:32.623Z,41.57
2023-09-06T07:00:38.021Z,41.38
2023-09-06T07:01:40.894Z,40.99
2023-09-06T07:02:43.273Z,40.38
2023-09-06T07:03:45.729Z,40.78
2023-09-06T07:04:48.912Z,40.72
2023-09-06T07:05:51.294Z,40.65
2023-09-06T07:06:54.758Z,40.70
2023-09-06T07:07:57.138Z,40.26
2023-09-06T07:08:59.789Z,39.93
2023-09-06T07:10:02.933Z,39.88
2023-09-06T07:11:06.422Z,40.05
2023-09-06T07:12:08.849Z,39.62
2023-09-06T07:13:11.215Z,39.54
2023-09-06T07:14:13.616Z,38.67
2023-09-06T07:15:16.137Z,38.33
2023-09-06T07:16:21.428Z,37.99
2023-09-06T07:17:24.041Z,37.51
2023-09-06T07:18:26.701Z,37.73
2023-09-06T07:19:29.173Z,37.72
2023-09-06T07:20:31.532Z,37.90
2023-09-06T07:21:34.002Z,37.83
2023-09-06T07:22:36.686Z,37.83
2023-09-06T07:23:39.611Z,37.77
2023-09-06T07:24:42.082Z,37.50
2023-09-06T07:25:48.306Z,36.87
2023-09-06T07:26:50.826Z,37.11
2023-09-06T07:27:53.286Z,37.04
2023-09-06T07:28:55.719Z,37.07
2023-09-06T07:29:58.357Z,37.65
2023-09-06T07:31:01.660Z,37.05
2023-09-06T07:32:04.711Z,36.75
2023-09-06T07:33:07.348Z,37.16
2023-09-06T07:34:10.028Z,36.83
2023-09-06T07:35:13.663Z,36.84
2023-09-06T07:36:16.194Z,36.88
2023-09-06T07:37:18.916Z,36.67
2023-09-06T07:38:21.318Z,36.22
2023-09-06T07:39:23.951Z,36.38
2023-09-06T07:40:26.362Z,36.57
2023-09-06T07:41:28.880Z,36.36
2023-09-06T07:42:31.272Z,36.16
2023-09-06T07:43:36.197Z,35.99
2023-09-06T07:44:38.766Z,36.16
2023-09-06T07:45:44.020Z,35.88
2023-09-06T07:46:50.213Z,35.78
2023-09-06T07:47:53.066Z,35.73
2023-09-06T07:48:56.344Z,35.44
2023-09-06T07:49:58.908Z,35.55
2023-09-06T07:51:01.514Z,35.53
2023-09-06T07:52:06.586Z,35.58
2023-09-06T07:53:10.869Z,35.51
2023-09-06T07:54:13.350Z,35.58
2023-09-06T07:55:15.733Z,35.69
2023-09-06T07:56:18.586Z,35.78
2023-09-06T07:57:21.096Z,35.28
2023-09-06T07:58:24.172Z,35.88
2023-09-06T07:59:27.053Z,35.25
2023-09-06T08:00:31.968Z,34.84
2023-09-06T08:01:34.519Z,34.80
2023-09-06T08:02:37.381Z,34.95
2023-09-06T08:03:39.927Z,35.05
2023-09-06T08:04:47.215Z,34.60
2023-09-06T08:05:51.586Z,34.76
2023-09-06T08:07:02.790Z,34.66
2023-09-06T08:08:10.693Z,34.44
2023-09-06T08:09:14.103Z,34.22
2023-09-06T08:10:16.707Z,34.30
2023-09-06T08:11:19.476Z,34.21
2023-09-06T08:12:21.913Z,34.27
2023-09-06T08:13:24.423Z,34.17
2023-09-06T08:14:27.341Z,34.06
2023-09-06T08:15:30.007Z,34.07
2023-09-06T08:16:33.616Z,34.21
2023-09-06T08:17:36.064Z,34.04
2023-09-06T08:18:38.523Z,33.46
2023-09-06T08:19:41.132Z,33.09
2023-09-06T08:20:43.550Z,33.62
2023-09-06T08:21:45.979Z,33.47
2023-09-06T08:22:48.476Z,33.36
2023-09-06T08:23:51.103Z,33.92
2023-09-06T08:24:53.464Z,33.59
2023-09-06T08:25:56.772Z,33.30
2023-09-06T08:26:59.776Z,33.73
2023-09-06T08:28:02.214Z,33.22
2023-09-06T08:29:06.555Z,32.71
2023-09-06T08:30:14.105Z,32.69
2023-09-06T08:31:16.785Z,32.40
2023-09-06T08:32:19.383Z,32.65
2023-09-06T08:33:22.003Z,32.73
2023-09-06T08:34:24.548Z,32.55
2023-09-06T08:35:29.174Z,32.95
2023-09-06T08:36:31.695Z,32.58
2023-09-06T08:37:37.937Z,32.34
2023-09-06T08:38:43.572Z,32.45
2023-09-06T08:39:46.141Z,32.53
2023-09-06T08:40:48.635Z,32.48
2023-09-06T08:41:53.189Z,32.28
2023-09-06T08:42:56.971Z,32.46
2023-09-06T08:44:04.909Z,32.27
2023-09-06T08:45:11.399Z,32.02
2023-09-06T08:46:25.346Z,32.04
2023-09-06T08:47:29.247Z,32.08
2023-09-06T08:48:33.519Z,31.93
2023-09-06T08:49:38.734Z,32.14
2023-09-06T08:50:41.985Z,31.84
2023-09-06T08:51:45.317Z,31.94
2023-09-06T08:52:51.881Z,32.04
2023-09-06T08:53:55.426Z,32.07
2023-09-06T08:54:57.791Z,31.73
2023-09-06T08:56:01.455Z,31.88
2023-09-06T08:57:05.109Z,31.63
2023-09-06T08:58:07.629Z,32.07
2023-09-06T08:59:10.571Z,32.20
2023-09-06T09:00:15.303Z,31.84
2023-09-06T09:01:17.785Z,31.83
2023-09-06T09:02:20.274Z,31.84
2023-09-06T09:03:22.841Z,31.33
2023-09-06T09:04:25.452Z,31.10
2023-09-06T09:05:28.026Z,31.60
2023-09-06T09:06:30.836Z,32.00
2023-09-06T09:07:33.480Z,32.08
2023-09-06T09:08:36.729Z,31.68
2023-09-06T09:10:10.047Z,32.17
2023-09-06T09:11:13.572Z,31.63
2023-09-06T09:12:16.294Z,31.58
2023-09-06T09:13:18.678Z,31.19
2023-09-06T09:14:21.634Z,31.54
2023-09-06T09:15:27.575Z,31.39
2023-09-06T09:16:30.513Z,31.14
2023-09-06T09:17:37.968Z,31.26
2023-09-06T09:18:48.977Z,31.02
2023-09-06T09:19:53.191Z,31.00
2023-09-06T09:20:58.712Z,30.48
2023-09-06T09:22:09.464Z,30.69
2023-09-06T09:23:16.175Z,31.03
2023-09-06T09:24:31.727Z,30.54
2023-09-06T09:25:34.448Z,30.84
2023-09-06T09:26:37.184Z,30.42
2023-09-06T09:27:39.577Z,30.68
2023-09-06T09:28:43.199Z,30.49
2023-09-06T09:29:46.168Z,30.60
2023-09-06T09:30:49.752Z,30.08
2023-09-06T09:31:52.218Z,29.97
2023-09-06T09:33:00.246Z,29.64
2023-09-06T09:34:02.847Z,29.90
2023-09-06T09:35:05.899Z,29.91
2023-09-06T09:36:08.658Z,29.83
2023-09-06T09:37:11.170Z,29.91
2023-09-06T09:38:13.688Z,29.95
2023-09-06T09:39:16.280Z,29.82
2023-09-06T09:40:22.530Z,30.14
2023-09-06T09:41:24.875Z,29.90
2023-09-06T09:42:28.112Z,29.77
2023-09-06T09:43:31.518Z,29.58
2023-09-06T09:44:35.037Z,29.29
2023-09-06T09:45:45.580Z,29.75
2023-09-06T09:46:48.073Z,29.67
2023-09-06T09:47:53.977Z,29.78
2023-09-06T09:49:01.315Z,29.55
2023-09-06T09:50:04.415Z,29.36
2023-09-06T09:51:09.312Z,29.34
2023-09-06T09:52:15.815Z,29.51
2023-09-06T09:53:24.584Z,29.51
2023-09-06T09:54:32.331Z,29.24
2023-09-06T09:55:40.165Z,29.71
2023-09-06T09:56:48.765Z,29.35
2023-09-06T09:57:52.802Z,29.56
2023-09-06T09:58:56.553Z,29.85
2023-09-06T09:59:59.548Z,29.80
2023-09-06T10:01:05.034Z,29.75
2023-09-06T10:02:10.589Z,29.69
2023-09-06T10:03:14.750Z,29.41
2023-09-06T10:04:17.693Z,28.74
2023-09-06T10:05:21.013Z,28.36
2023-09-06T10:06:26.230Z,28.33
2023-09-06T10:07:46.749Z,28.14
2023-09-06T10:08:54.610Z,27.71
2023-09-06T10:09:57.676Z,27.76
2023-09-06T10:11:00.353Z,27.71
2023-09-06T10:12:05.170Z,27.75
2023-09-06T10:13:11.058Z,27.52
2023-09-06T10:14:16.243Z,27.50
2023-09-06T10:15:24.860Z,27.26
2023-09-06T10:16:27.971Z,27.20
2023-09-06T10:17:31.275Z,27.15
2023-09-06T10:18:34.228Z,27.39
2023-09-06T10:19:52.391Z,27.46
2023-09-06T10:20:57.763Z,26.52
2023-09-06T10:22:02.823Z,25.95
2023-09-06T10:23:09.069Z,25.70
2023-09-06T10:24:23.925Z,26.74
2023-09-06T10:25:27.001Z,27.08
2023-09-06T10:26:35.649Z,27.25
2023-09-06T10:27:52.012Z,27.08
2023-09-06T10:29:01.952Z,26.58
2023-09-06T10:30:07.860Z,25.98
2023-09-06T10:31:13.918Z,26.19
2023-09-06T10:32:16.339Z,26.46
2023-09-06T10:33:32.613Z,26.96
2023-09-06T10:34:35.001Z,26.83
2023-09-06T10:35:46.696Z,27.17
2023-09-06T10:36:58.877Z,27.32
2023-09-06T10:38:06.054Z,27.76
2023-09-06T10:39:15.827Z,28.02
2023-09-06T10:40:20.364Z,27.96
2023-09-06T10:41:28.156Z,28.06
2023-09-06T10:42:30.688Z,28.00
2023-09-06T10:43:55.720Z,28.27
2023-09-06T10:45:00.506Z,28.20
2023-09-06T10:46:05.948Z,28.34
2023-09-06T10:47:32.357Z,28.78
2023-09-06T10:48:35.172Z,28.29
2023-09-06T10:49:37.653Z,28.35
2023-09-06T10:50:40.865Z,28.26
2023-09-06T10:52:03.067Z,28.79
2023-09-06T10:53:07.347Z,28.31
2023-09-06T10:54:10.772Z,28.30
2023-09-06T10:55:16.576Z,28.63
2023-09-06T10:56:29.428Z,28.77
2023-09-06T10:57:51.886Z,28.86
2023-09-06T10:58:57.849Z,28.92
2023-09-06T11:00:00.349Z,28.44
2023-09-06T11:01:20.022Z,28.47
2023-09-06T11:02:23.228Z,28.19
2023-09-06T11:03:33.382Z,28.29
2023-09-06T11:04:36.128Z,27.82
2023-09-06T11:05:51.679Z,27.92
2023-09-06T11:06:54.256Z,27.95
2023-09-06T11:07:56.824Z,27.91
2023-09-06T11:09:06.950Z,27.79
2023-09-06T11:10:11.061Z,27.38
2023-09-06T11:11:15.555Z,27.31
2023-09-06T11:12:18.763Z,27.70
2023-09-06T11:13:21.648Z,27.70
2023-09-06T11:14:29.601Z,27.77
2023-09-06T11:15:36.438Z,27.60
2023-09-06T11:16:47.566Z,27.70
2023-09-06T11:17:50.086Z,27.65
2023-09-06T11:18:52.549Z,28.03
2023-09-06T11:19:55.406Z,27.14
2023-09-06T11:20:57.905Z,27.32
2023-09-06T11:22:11.862Z,27.11
2023-09-06T11:23:14.250Z,26.53
2023-09-06T11:24:16.872Z,26.55
2023-09-06T11:25:24.332Z,27.00
2023-09-06T11:26:28.540Z,26.94
2023-09-06T11:27:35.173Z,26.82
2023-09-06T11:28:39.852Z,26.64
2023-09-06T11:29:42.735Z,26.41
2023-09-06T11:30:48.404Z,26.60
2023-09-06T11:31:54.240Z,26.60
2023-09-06T11:32:58.471Z,26.40
2023-09-06T11:34:05.971Z,25.90
2023-09-06T11:35:10.123Z,26.15
2023-09-06T11:36:14.255Z,26.01
2023-09-06T11:37:20.010Z,25.95
2023-09-06T11:38:26.772Z,26.28
2023-09-06T11:39:30.619Z,26.37
2023-09-06T11:40:36.243Z,27.25
2023-09-06T11:41:40.749Z,26.42
2023-09-06T11:42:46.988Z,26.61
2023-09-06T11:43:55.284Z,26.57
2023-09-06T11:44:59.579Z,26.52
2023-09-06T11:46:05.941Z,26.70
2023-09-06T11:47:09.626Z,26.54
2023-09-06T11:48:16.065Z,26.24
2023-09-06T11:49:22.902Z,26.57
2023-09-06T11:50:26.291Z,26.29
2023-09-06T11:51:30.071Z,25.99
2023-09-06T11:52:36.587Z,25.94
2023-09-06T11:53:55.728Z,26.27
2023-09-06T11:54:59.670Z,26.66
2023-09-06T11:56:02.297Z,26.70
2023-09-06T11:57:06.156Z,26.43
2023-09-06T11:58:17.755Z,26.33
2023-09-06T11:59:21.692Z,26.40
2023-09-06T12:00:38.281Z,26.40
2023-09-06T12:01:42.239Z,25.90
2023-09-06T12:02:49.193Z,25.72
2023-09-06T12:03:54.648Z,25.40
2023-09-06T12:05:02.526Z,25.53
2023-09-06T12:06:08.724Z,25.19
2023-09-06T12:07:11.179Z,25.38
2023-09-06T12:08:19.152Z,25.48
2023-09-06T12:09:22.338Z,25.99
2023-09-06T12:10:24.850Z,25.74
2023-09-06T12:11:28.776Z,25.42
2023-09-06T12:12:41.023Z,25.71
2023-09-06T12:13:43.374Z,25.52
2023-09-06T12:14:45.907Z,25.12
2023-09-06T12:15:48.908Z,25.35
2023-09-06T12:16:51.419Z,25.33
2023-09-06T12:17:53.891Z,25.09
2023-09-06T12:18:56.655Z,25.18
2023-09-06T12:20:00.408Z,25.17
2023-09-06T12:21:06.753Z,25.32
2023-09-06T12:22:09.231Z,25.46
2023-09-06T12:23:11.692Z,25.64
2023-09-06T12:24:14.179Z,25.63
2023-09-06T12:25:21.071Z,25.91
2023-09-06T12:26:23.856Z,25.85
2023-09-06T12:27:26.790Z,25.69
2023-09-06T12:28:30.760Z,26.05
2023-09-06T12:29:33.348Z,25.85
2023-09-06T12:30:35.709Z,25.56
2023-09-06T12:31:38.226Z,25.55
2023-09-06T12:32:41.718Z,25.30
2023-09-06T12:33:47.227Z,25.57
2023-09-06T12:34:50.051Z,25.69
2023-09-06T12:36:02.462Z,25.96
2023-09-06T12:37:05.034Z,26.21
2023-09-06T12:38:08.091Z,25.89
2023-09-06T12:39:10.569Z,26.17
2023-09-06T12:40:14.723Z,26.07
2023-09-06T12:41:17.273Z,25.59
2023-09-06T12:42:19.664Z,25.96
2023-09-06T12:43:22.516Z,25.71
2023-09-06T12:44:24.933Z,26.02
2023-09-06T12:45:32.847Z,25.84
2023-09-06T12:46:35.685Z,25.63
2023-09-06T12:47:38.662Z,25.66
2023-09-06T12:48:44.281Z,25.82
2023-09-06T12:49:47.287Z,25.54
2023-09-06T12:50:50.735Z,25.19
2023-09-06T12:51:53.143Z,25.04
2023-09-06T12:52:56.359Z,24.82
2023-09-06T12:53:58.935Z,24.77
2023-09-06T12:55:06.881Z,24.76
2023-09-06T12:56:13.646Z,25.09
2023-09-06T12:57:18.821Z,24.63
2023-09-06T12:58:21.285Z,25.13
2023-09-06T12:59:23.744Z,24.87
2023-09-06T13:00:27.486Z,25.01
2023-09-06T13:01:29.950Z,24.94
2023-09-06T13:02:33.649Z,25.26
2023-09-06T13:03:36.416Z,25.28
2023-09-06T13:04:38.941Z,25.57
2023-09-06T13:05:42.922Z,24.79
2023-09-06T13:06:45.421Z,24.99
2023-09-06T13:07:48.068Z,24.63
2023-09-06T13:08:51.919Z,24.75
2023-09-06T13:09:54.411Z,24.30
2023-09-06T13:10:56.859Z,24.27
2023-09-06T13:11:59.302Z,24.08
2023-09-06T13:13:01.648Z,24.39
2023-09-06T13:14:04.526Z,24.64
2023-09-06T13:15:07.469Z,24.61
2023-09-06T13:16:09.883Z,24.27
2023-09-06T13:17:12.453Z,24.35
2023-09-06T13:18:14.907Z,24.17
2023-09-06T13:19:17.527Z,24.53
2023-09-06T13:20:19.937Z,24.49
2023-09-06T13:21:22.478Z,24.83
2023-09-06T13:22:24.971Z,25.12
2023-09-06T13:23:27.492Z,25.14
2023-09-06T13:24:34.756Z,25.74
2023-09-06T13:25:37.531Z,25.37
2023-09-06T13:26:40.043Z,24.92
2023-09-06T13:27:45.294Z,25.58
2023-09-06T13:28:47.712Z,25.41
2023-09-06T13:29:50.908Z,25.84
2023-09-06T13:30:53.629Z,26.02
2023-09-06T13:31:56.220Z,26.34
2023-09-06T13:32:58.743Z,26.54
2023-09-06T13:34:03.347Z,26.37
2023-09-06T13:35:06.532Z,26.15
2023-09-06T13:36:09.010Z,26.17
2023-09-06T13:37:11.448Z,25.82
2023-09-06T13:38:13.893Z,25.74
2023-09-06T13:39:18.564Z,25.90
2023-09-06T13:40:21.303Z,25.94
2023-09-06T13:41:23.746Z,25.97
2023-09-06T13:42:26.416Z,26.00
2023-09-06T13:43:29.078Z,26.07
2023-09-06T13:44:32.611Z,26.71
2023-09-06T13:45:35.057Z,26.59
2023-09-06T13:46:37.575Z,27.04
2023-09-06T13:47:40.066Z,27.13
2023-09-06T13:48:42.679Z,27.44
2023-09-06T13:49:45.198Z,27.70
2023-09-06T13:50:47.597Z,27.74